KNLC/NLC METAR and TAF weather

Enter ICAO airport designator
Station Type Date Time Source
KNLC METAR 2021/05/10 01:56 UTC NOAA

KNLC 100156Z AUTO 35014KT 10SM CLR 28/03 A2978 RMK AO2 SLP084 T02830028


Station Type Date Time Source
KNLC Decoded METAR 2021/05/10 01:56 UTC NOAA

LEMOORE NAVAL AIR STATION, CA, United States (KNLC) 36-20N 119-57W 72M
May 09, 2021 - 09:56 PM EDT / 2021.05.10 0156 UTC
Wind: from the N (350 degrees) at 16 MPH (14 KT):0
Visibility: 10 mile(s):0
Sky conditions: clear
Temperature: 82.9 F (28.3 C)
Dew Point: 37.0 F (2.8 C)
Relative Humidity: 19%
Pressure (altimeter): 29.78 in. Hg (1008 hPa)
ob: KNLC 100156Z AUTO 35014KT 10SM CLR 28/03 A2978 RMK AO2 SLP084 T02830028
cycle: 2

Station Type Date Time Source
KNLC TAF 2021/05/09 23:03 UTC NOAA

TAF TAF KNLC 0923/1023 33015KT 9999 SCT250 520509 QNH2975INS
FM100300 30009KT 9999 FEW250 500000 QNH2973INS
FM101600 33012G18KT 9999 SKC 520009 QNH2970INS
TEMPO 1017/1023 33016G24KT T14/1013Z T34/1022Z FS30170

Example: see airport list